Time;durP1;ratioP1;P1;durP2;ratioP2;P2;SDS_P1;SDS_P2;PMS_P1;PMS_P2;Temp;Humidity;BMP_temperature;BMP_pressure;BME280_temperature;BME280_humidity;BME280_pressure;Samples;Min_cycle;Max_cycle;Signal;HPM_P1;HPM_P2
2022/10/14 00:01:26;;;;;;;60.05;5.43;;;7.80;1.00;;;;;;5009037;28;20080;-79
2022/10/14 00:03:53;;;;;;;17.50;3.38;;;7.70;1.00;;;;;;4996799;28;20023;-79
2022/10/14 00:06:22;;;;;;;21.90;3.40;;;7.70;1.00;;;;;;4994319;28;20030;-79
2022/10/14 00:08:47;;;;;;;8.65;3.40;;;7.70;1.00;;;;;;4999821;28;20026;-79
2022/10/14 00:11:17;;;;;;;18.55;3.50;;;7.70;1.00;;;;;;5005149;28;20544;-78
2022/10/14 00:13:42;;;;;;;18.83;3.40;;;7.80;1.00;;;;;;5008902;28;20030;-78
2022/10/14 00:16:18;;;;;;;6.85;2.95;;;7.90;1.00;;;;;;5000253;28;20598;-78
2022/10/14 00:18:44;;;;;;;12.63;3.53;;;8.00;1.00;;;;;;5015653;28;20045;-78
2022/10/14 00:21:10;;;;;;;17.60;3.92;;;8.00;1.00;;;;;;5009581;28;20084;-79
2022/10/14 00:23:36;;;;;;;37.33;5.55;;;8.00;1.00;;;;;;5003691;28;20417;-78
2022/10/14 00:26:01;;;;;;;9.93;3.45;;;8.00;1.00;;;;;;5015627;28;20029;-78
2022/10/14 00:28:27;;;;;;;14.18;4.32;;;7.90;1.00;;;;;;5001558;28;20030;-79
2022/10/14 00:31:02;;;;;;;6.38;3.35;;;7.80;1.00;;;;;;5007887;28;20073;-79
2022/10/14 00:33:28;;;;;;;10.75;3.00;;;7.70;1.00;;;;;;5011250;28;20108;-78
2022/10/14 00:35:58;;;;;;;6.65;2.78;;;7.70;1.00;;;;;;5015372;28;20022;-78
2022/10/14 00:38:24;;;;;;;8.00;2.92;;;7.60;1.00;;;;;;5015794;28;20434;-78
2022/10/14 00:40:50;;;;;;;10.63;3.13;;;7.60;1.00;;;;;;5015196;28;20034;-78
2022/10/14 00:43:16;;;;;;;5.60;3.00;;;7.60;1.00;;;;;;5015275;28;20026;-78
2022/10/14 00:45:41;;;;;;;54.03;5.32;;;7.60;1.00;;;;;;5008384;28;20076;-78
2022/10/14 00:48:08;;;;;;;23.98;4.97;;;7.60;1.00;;;;;;4995836;28;20105;-78
2022/10/14 00:50:35;;;;;;;14.55;3.88;;;7.60;1.00;;;;;;5011942;28;20101;-78
2022/10/14 00:53:02;;;;;;;14.50;3.67;;;7.50;1.00;;;;;;5015046;28;20026;-78
2022/10/14 00:55:28;;;;;;;82.82;8.63;;;7.50;1.00;;;;;;5015149;28;20453;-78
2022/10/14 00:57:54;;;;;;;18.75;3.65;;;7.60;1.00;;;;;;5015000;28;20373;-78
2022/10/14 01:00:20;;;;;;;11.07;4.18;;;7.50;1.00;;;;;;5014992;28;20029;-78
2022/10/14 01:02:46;;;;;;;11.35;3.72;;;7.40;1.00;;;;;;5014797;28;20022;-78
2022/10/14 01:05:14;;;;;;;23.27;4.18;;;7.40;1.00;;;;;;5015117;28;20174;-78
2022/10/14 01:08:07;;;;;;;28.55;4.60;;;7.50;1.00;;;;;;5014726;28;20022;-78
2022/10/14 01:10:54;;;;;;;11.70;3.90;;;7.40;1.00;;;;;;5013787;28;20018;-78
2022/10/14 01:13:32;;;;;;;9.80;3.55;;;7.40;1.00;;;;;;4995128;28;20524;-78
2022/10/14 01:16:21;;;;;;;5.85;3.63;;;7.40;1.00;;;;;;4995151;28;20026;-78
2022/10/14 01:19:06;;;;;;;26.00;4.72;;;7.50;1.00;;;;;;4995067;28;20481;-78
2022/10/14 01:21:34;;;;;;;12.88;4.60;;;7.60;1.00;;;;;;4994691;28;20018;-78
2022/10/14 01:24:04;;;;;;;18.98;4.35;;;7.50;1.00;;;;;;4995028;28;20070;-78
2022/10/14 01:26:58;;;;;;;46.15;7.00;;;7.50;1.00;;;;;;4995213;28;20041;-78
2022/10/14 01:30:18;;;;;;;19.75;4.75;;;7.50;1.00;;;;;;4995000;28;20030;-78
2022/10/14 01:33:30;;;;;;;34.38;5.53;;;7.50;1.00;;;;;;4915051;29;20064;-78
2022/10/14 01:36:16;;;;;;;52.13;8.13;;;7.60;1.00;;;;;;4953515;29;20047;-78
2022/10/14 01:38:54;;;;;;;148.15;11.45;;;7.60;1.00;;;;;;4953510;29;20118;-78
2022/10/14 01:41:24;;;;;;;48.95;6.68;;;7.70;1.00;;;;;;4994627;28;20034;-78
2022/10/14 01:43:51;;;;;;;;;;;7.70;1.00;;;;;;5014690;28;20666;-78
2022/10/14 01:46:20;;;;;;;13.05;4.55;;;7.60;1.00;;;;;;5014174;28;20399;-78
2022/10/14 01:48:50;;;;;;;17.63;6.22;;;7.60;1.00;;;;;;5014036;28;20077;-78
2022/10/14 01:51:22;;;;;;;15.50;5.68;;;7.60;1.00;;;;;;5013958;28;20116;-78
2022/10/14 01:54:04;;;;;;;85.00;11.85;;;7.60;1.00;;;;;;5014003;28;20033;-78
2022/10/14 01:56:31;;;;;;;21.20;7.18;;;7.60;1.00;;;;;;5013802;28;20369;-78
2022/10/14 01:58:59;;;;;;;46.33;9.50;;;7.60;1.00;;;;;;5013904;28;20050;-78
2022/10/14 02:01:25;;;;;;;32.03;9.45;;;7.70;1.00;;;;;;5013809;28;20034;-78
2022/10/14 02:03:51;;;;;;;34.92;8.25;;;7.70;1.00;;;;;;5013773;28;20026;-78
2022/10/14 02:06:25;;;;;;;20.45;8.20;;;7.60;1.00;;;;;;5013769;28;20026;-78
2022/10/14 02:09:06;;;;;;;85.68;11.85;;;7.60;1.00;;;;;;5013727;28;20561;-78
2022/10/14 02:11:45;;;;;;;38.20;8.60;;;7.50;1.00;;;;;;5013523;28;20343;-78
2022/10/14 02:14:38;;;;;;;18.33;8.63;;;7.50;1.00;;;;;;5019124;28;20032;-78
2022/10/14 02:17:12;;;;;;;21.35;8.50;;;7.60;1.00;;;;;;5033250;28;20083;-78
2022/10/14 02:19:54;;;;;;;16.42;8.90;;;7.60;1.00;;;;;;5033295;28;20044;-78
2022/10/14 02:22:28;;;;;;;17.17;8.60;;;7.60;1.00;;;;;;5033192;28;20435;-78
2022/10/14 02:24:59;;;;;;;25.95;9.85;;;7.60;1.00;;;;;;5026572;28;20022;-78
2022/10/14 02:27:25;;;;;;;;;;;7.60;1.00;;;;;;5013890;28;20390;-78
2022/10/14 02:29:53;;;;;;;15.38;9.00;;;7.70;1.00;;;;;;5013684;28;19912;-78
2022/10/14 02:32:21;;;;;;;16.40;8.48;;;7.70;1.00;;;;;;5012642;28;20023;-78
2022/10/14 02:34:52;;;;;;;15.98;9.43;;;7.70;1.00;;;;;;5012854;28;20484;-78
2022/10/14 02:37:18;;;;;;;26.05;9.93;;;7.70;1.00;;;;;;5013202;28;20026;-78
2022/10/14 02:39:53;;;;;;;18.45;9.27;;;7.80;1.00;;;;;;5013234;28;20026;-78
2022/10/14 02:42:19;;;;;;;31.95;11.48;;;7.90;1.00;;;;;;5012988;28;20056;-78
2022/10/14 02:44:53;;;;;;;34.65;10.35;;;7.90;1.00;;;;;;5003602;28;20019;-77
2022/10/14 02:47:18;;;;;;;37.55;9.93;;;8.00;1.00;;;;;;5004628;28;20034;-78
2022/10/14 02:49:44;;;;;;;79.15;12.63;;;8.00;1.00;;;;;;5032620;28;20023;-78
2022/10/14 02:52:09;;;;;;;24.17;10.15;;;8.10;1.00;;;;;;5032680;28;20022;-78
2022/10/14 02:54:35;;;;;;;35.20;10.35;;;8.20;1.00;;;;;;5032494;28;20017;-78
2022/10/14 02:57:01;;;;;;;26.98;9.90;;;8.20;1.00;;;;;;5032520;28;20021;-78
2022/10/14 02:59:26;;;;;;;26.60;10.57;;;8.30;1.00;;;;;;5032457;28;20068;-78
2022/10/14 03:01:52;;;;;;;53.97;11.95;;;8.40;1.00;;;;;;5032647;28;20060;-78
2022/10/14 03:04:17;;;;;;;79.00;12.80;;;8.50;1.00;;;;;;5032525;28;20029;-78
2022/10/14 03:06:43;;;;;;;44.28;12.02;;;8.50;1.00;;;;;;5032510;28;20091;-78
2022/10/14 03:09:08;;;;;;;52.03;11.77;;;8.60;1.00;;;;;;5032362;28;20025;-78
2022/10/14 03:11:34;;;;;;;42.15;12.43;;;8.70;1.00;;;;;;5032365;28;20017;-78
2022/10/14 03:13:59;;;;;;;45.47;12.30;;;8.80;1.50;;;;;;5032267;28;20099;-78
2022/10/14 03:16:25;;;;;;;74.50;13.73;;;8.80;10.40;;;;;;5032410;28;20029;-78
2022/10/14 03:18:50;;;;;;;42.28;12.68;;;8.90;15.20;;;;;;5032379;28;20053;-78
2022/10/14 03:21:16;;;;;;;37.35;12.02;;;8.90;16.90;;;;;;5032487;28;20060;-78
2022/10/14 03:23:41;;;;;;;75.75;15.50;;;9.00;19.80;;;;;;5032339;28;20022;-78
2022/10/14 03:26:07;;;;;;;79.00;14.80;;;9.10;27.20;;;;;;5032341;28;20029;-78
2022/10/14 03:28:32;;;;;;;283.02;23.27;;;9.10;30.50;;;;;;5028721;28;20030;-78
2022/10/14 03:30:58;;;;;;;153.73;18.73;;;9.50;27.00;;;;;;5012615;28;20037;-78
2022/10/14 03:33:24;;;;;;;185.60;20.50;;;9.40;21.60;;;;;;5012345;28;20054;-79
2022/10/14 03:35:49;;;;;;;244.10;19.98;;;9.60;11.70;;;;;;5012591;28;20374;-79
2022/10/14 03:38:15;;;;;;;133.35;13.48;;;9.70;13.50;;;;;;4996121;28;20373;-78
2022/10/14 03:40:41;;;;;;;150.68;12.02;;;9.90;19.50;;;;;;4992885;28;20543;-78
2022/10/14 03:43:06;;;;;;;59.53;9.25;;;9.90;18.70;;;;;;5009360;28;20033;-78
2022/10/14 03:45:32;;;;;;;63.13;9.43;;;10.00;28.20;;;;;;5015362;28;20026;-78
2022/10/14 03:47:57;;;;;;;85.07;11.00;;;9.90;34.50;;;;;;5016477;28;20663;-78
2022/10/14 03:50:23;;;;;;;241.18;15.55;;;10.10;38.40;;;;;;5016241;28;20138;-78
2022/10/14 03:52:48;;;;;;;73.18;11.55;;;10.10;48.30;;;;;;5016231;28;20084;-78
2022/10/14 03:55:14;;;;;;;70.07;9.70;;;10.10;58.20;;;;;;5016100;28;20029;-78
2022/10/14 03:57:40;;;;;;;204.98;14.48;;;10.20;59.30;;;;;;5016165;28;20022;-78
2022/10/14 04:00:06;;;;;;;92.78;10.90;;;10.30;69.90;;;;;;5016026;28;20030;-78
2022/10/14 04:02:32;;;;;;;81.80;9.15;;;10.20;78.50;;;;;;5015764;28;20386;-78
2022/10/14 04:04:57;;;;;;;127.80;12.10;;;10.20;87.10;;;;;;5033619;28;20033;-78
2022/10/14 04:07:23;;;;;;;91.13;12.13;;;10.30;91.50;;;;;;5035689;28;20033;-78
2022/10/14 04:09:49;;;;;;;97.22;9.50;;;10.40;94.80;;;;;;5035620;28;20368;-78
2022/10/14 04:12:14;;;;;;;70.13;8.20;;;10.40;91.00;;;;;;5016877;28;21225;-78
2022/10/14 04:14:40;;;;;;;75.75;8.38;;;10.40;91.90;;;;;;4996160;28;20434;-78
2022/10/14 04:17:05;;;;;;;50.25;6.88;;;10.40;93.50;;;;;;4996227;28;20019;-78
2022/10/14 04:19:31;;;;;;;42.10;7.05;;;10.40;99.90;;;;;;4996068;28;20366;-78
2022/10/14 04:21:57;;;;;;;93.05;10.48;;;10.40;99.90;;;;;;4998492;28;20097;-78
2022/10/14 04:24:22;;;;;;;54.30;7.72;;;10.40;99.90;;;;;;5015675;28;20018;-78
2022/10/14 04:26:51;;;;;;;45.35;7.55;;;10.40;99.90;;;;;;5015774;28;20054;-78
2022/10/14 04:29:18;;;;;;;48.55;8.00;;;10.40;99.90;;;;;;5015626;28;20346;-78
2022/10/14 04:31:43;;;;;;;62.50;6.65;;;10.40;99.90;;;;;;5015579;28;20373;-79
2022/10/14 04:34:10;;;;;;;44.50;6.97;;;10.40;99.90;;;;;;5015060;28;20053;-79
2022/10/14 04:36:35;;;;;;;70.15;9.82;;;10.50;99.90;;;;;;5015405;28;20033;-78
2022/10/14 04:39:01;;;;;;;41.35;7.55;;;10.50;99.90;;;;;;5015391;28;20105;-78
2022/10/14 04:41:27;;;;;;;36.22;6.65;;;10.50;99.90;;;;;;5030724;28;20033;-78
2022/10/14 04:43:53;;;;;;;46.92;6.45;;;10.50;99.90;;;;;;5032129;28;20030;-78
2022/10/14 04:46:18;;;;;;;38.05;6.32;;;10.40;99.90;;;;;;5017592;28;20641;-78
2022/10/14 04:48:46;;;;;;;27.08;5.13;;;10.50;99.90;;;;;;5025251;28;20026;-78
2022/10/14 04:51:12;;;;;;;44.40;5.68;;;10.40;99.90;;;;;;5015048;28;20026;-78
2022/10/14 04:53:37;;;;;;;40.05;5.53;;;10.40;99.90;;;;;;5015037;28;20400;-78
2022/10/14 04:56:03;;;;;;;27.00;5.57;;;10.40;99.90;;;;;;5014320;28;20034;-78
2022/10/14 04:58:29;;;;;;;34.58;4.75;;;10.40;99.90;;;;;;5015003;28;20030;-79
2022/10/14 05:00:55;;;;;;;37.85;5.55;;;10.40;99.90;;;;;;5014798;28;20018;-78
2022/10/14 05:03:20;;;;;;;30.23;5.50;;;10.40;99.90;;;;;;5014992;28;20054;-78
2022/10/14 05:05:46;;;;;;;27.38;4.63;;;10.40;99.90;;;;;;5014871;28;20022;-78
2022/10/14 05:08:11;;;;;;;45.50;5.97;;;10.40;99.90;;;;;;5014915;28;20022;-78
2022/10/14 05:10:38;;;;;;;46.08;6.75;;;10.40;99.90;;;;;;5014767;28;20062;-79
2022/10/14 05:13:03;;;;;;;35.33;6.50;;;10.50;99.90;;;;;;5005846;28;20497;-78
2022/10/14 05:15:30;;;;;;;47.97;6.13;;;10.50;99.90;;;;;;4995103;28;20029;-78
2022/10/14 05:17:55;;;;;;;80.78;7.85;;;10.50;99.90;;;;;;4995056;28;20441;-78
2022/10/14 05:20:21;;;;;;;65.07;8.00;;;10.60;99.90;;;;;;4997692;28;20026;-78
2022/10/14 05:22:46;;;;;;;78.13;8.10;;;10.60;99.90;;;;;;5014493;28;20366;-78
2022/10/14 05:25:12;;;;;;;141.02;11.13;;;10.60;99.90;;;;;;5014495;28;20061;-78
2022/10/14 05:27:38;;;;;;;65.95;8.40;;;10.60;99.90;;;;;;5014366;28;20470;-77
2022/10/14 05:30:04;;;;;;;124.55;10.50;;;10.60;99.90;;;;;;5014321;28;20069;-77
2022/10/14 05:32:30;;;;;;;44.17;9.10;;;10.60;99.90;;;;;;5013697;28;20081;-78
2022/10/14 05:34:55;;;;;;;111.18;10.55;;;10.60;99.90;;;;;;5013403;28;20105;-77
2022/10/14 05:37:21;;;;;;;52.42;8.35;;;10.60;99.90;;;;;;5013781;28;20030;-77
2022/10/14 05:39:47;;;;;;;52.65;8.63;;;10.60;99.90;;;;;;5014074;28;20029;-77
2022/10/14 05:42:12;;;;;;;60.72;10.57;;;10.70;99.90;;;;;;5013830;28;20037;-77
2022/10/14 05:44:38;;;;;;;147.73;13.18;;;10.60;99.90;;;;;;5014091;28;20535;-77
2022/10/14 05:47:03;;;;;;;62.70;10.15;;;10.70;99.90;;;;;;5013320;28;20037;-77
2022/10/14 05:49:29;;;;;;;66.07;10.52;;;10.70;99.90;;;;;;5013792;28;20069;-77
2022/10/14 05:51:54;;;;;;;147.20;13.82;;;10.70;99.90;;;;;;5013668;28;20028;-77
2022/10/14 05:54:20;;;;;;;105.22;12.05;;;10.70;99.90;;;;;;5013637;28;20100;-77
2022/10/14 05:56:46;;;;;;;113.97;12.40;;;10.70;99.90;;;;;;5013698;28;20057;-77
2022/10/14 05:59:11;;;;;;;65.75;11.77;;;10.60;99.90;;;;;;5013577;28;20057;-77
2022/10/14 06:01:38;;;;;;;67.40;10.65;;;10.60;99.90;;;;;;5013038;28;20034;-78
2022/10/14 06:04:03;;;;;;;83.22;12.73;;;10.50;97.30;;;;;;5030096;28;20033;-77
2022/10/14 06:06:29;;;;;;;211.45;16.75;;;10.50;92.90;;;;;;5033080;28;20021;-77
2022/10/14 06:08:56;;;;;;;128.32;16.40;;;10.50;96.00;;;;;;5032170;28;20453;-77
2022/10/14 06:11:22;;;;;;;74.13;13.65;;;10.50;93.50;;;;;;5032923;28;20408;-77
2022/10/14 06:13:48;;;;;;;71.10;15.48;;;10.50;82.80;;;;;;5008773;28;20030;-77
2022/10/14 06:16:14;;;;;;;130.43;17.05;;;10.50;92.90;;;;;;5010491;28;20088;-77
2022/10/14 06:18:39;;;;;;;60.53;15.30;;;10.50;71.80;;;;;;5001070;28;20026;-77
2022/10/14 06:21:06;;;;;;;76.85;16.35;;;10.50;73.80;;;;;;5003426;28;20037;-77
2022/10/14 06:23:31;;;;;;;98.03;16.65;;;10.60;51.80;;;;;;5003458;28;20026;-77
2022/10/14 06:25:57;;;;;;;78.40;16.40;;;10.50;27.30;;;;;;5001876;28;20029;-77
2022/10/14 06:28:22;;;;;;;103.03;16.80;;;10.50;19.40;;;;;;5010459;28;20084;-80
2022/10/14 06:30:53;;;;;;;103.18;17.35;;;10.50;14.50;;;;;;5010838;28;20022;-78
2022/10/14 06:33:19;;;;;;;190.98;20.17;;;10.60;99.90;;;;;;5006055;28;20066;-78
2022/10/14 06:35:45;;;;;;;125.90;17.85;;;10.50;92.80;;;;;;5001715;28;20022;-77
2022/10/14 06:38:11;;;;;;;249.82;20.52;;;10.50;90.80;;;;;;4992996;28;20517;-77
2022/10/14 06:40:37;;;;;;;244.93;20.65;;;10.50;76.00;;;;;;5011500;28;20022;-78
2022/10/14 06:43:02;;;;;;;182.57;18.15;;;10.40;38.40;;;;;;5006581;28;20030;-77
2022/10/14 06:45:28;;;;;;;255.30;21.67;;;10.40;45.10;;;;;;5000409;28;20037;-77
2022/10/14 06:47:54;;;;;;;186.43;19.33;;;10.40;46.20;;;;;;5003627;28;20178;-77
2022/10/14 06:50:19;;;;;;;105.38;17.42;;;10.50;70.10;;;;;;4994036;28;20500;-78
2022/10/14 06:52:45;;;;;;;54.90;14.00;;;10.60;53.30;;;;;;5005230;28;20019;-78
2022/10/14 06:55:11;;;;;;;50.95;15.02;;;10.50;41.40;;;;;;4998102;28;20125;-78
2022/10/14 06:57:37;;;;;;;65.88;16.02;;;10.50;26.40;;;;;;4998051;28;20109;-77
2022/10/14 07:00:04;;;;;;;50.28;13.32;;;10.50;10.90;;;;;;4998267;28;20054;-77
2022/10/14 07:02:29;;;;;;;26.10;10.80;;;10.50;5.80;;;;;;4998147;28;20053;-77
2022/10/14 07:04:55;;;;;;;28.80;10.48;;;10.60;4.60;;;;;;4993503;28;20030;-77
2022/10/14 07:07:20;;;;;;;28.10;10.45;;;10.50;1.00;;;;;;4992128;28;20112;-77
2022/10/14 07:09:46;;;;;;;26.10;9.88;;;10.60;1.00;;;;;;4995768;28;20089;-77
2022/10/14 07:12:11;;;;;;;30.10;11.25;;;10.60;1.00;;;;;;5001041;28;20026;-77
2022/10/14 07:14:37;;;;;;;28.20;11.68;;;10.50;1.00;;;;;;5003452;28;20830;-77
2022/10/14 07:17:03;;;;;;;25.02;10.05;;;10.50;1.00;;;;;;5003816;28;20408;-77
2022/10/14 07:19:28;;;;;;;24.15;10.55;;;10.60;1.00;;;;;;4998642;28;20018;-78
2022/10/14 07:21:54;;;;;;;24.60;11.25;;;10.60;1.00;;;;;;5003035;28;20026;-78
2022/10/14 07:24:19;;;;;;;21.88;10.20;;;10.70;1.00;;;;;;5007606;28;20477;-77
2022/10/14 07:26:45;;;;;;;28.75;11.13;;;10.90;1.00;;;;;;5008359;28;20075;-78
2022/10/14 07:29:11;;;;;;;24.15;10.82;;;10.90;1.00;;;;;;5011817;28;20030;-77
2022/10/14 07:31:36;;;;;;;26.05;10.68;;;10.90;1.00;;;;;;5019923;28;20026;-78
2022/10/14 07:34:02;;;;;;;29.77;11.93;;;11.00;1.00;;;;;;5010872;28;20177;-77
2022/10/14 07:36:28;;;;;;;31.90;12.10;;;11.10;1.00;;;;;;5021455;28;20436;-78
2022/10/14 07:38:54;;;;;;;28.65;10.73;;;11.10;1.00;;;;;;5010124;28;20482;-78
2022/10/14 07:41:22;;;;;;;30.67;12.00;;;11.10;1.00;;;;;;5021634;28;20047;-77
2022/10/14 07:43:50;;;;;;;31.15;12.43;;;11.20;1.00;;;;;;5012375;28;20026;-78
2022/10/14 07:46:27;;;;;;;28.83;11.68;;;11.10;99.90;;;;;;5010934;28;20018;-78
2022/10/14 07:48:53;;;;;;;31.38;12.43;;;11.10;1.00;;;;;;5000236;28;20031;-78
2022/10/14 07:51:19;;;;;;;26.77;11.35;;;11.20;99.90;;;;;;5002403;28;20137;-77
2022/10/14 07:53:44;;;;;;;31.85;11.75;;;11.20;99.90;;;;;;5002701;28;20065;-78
2022/10/14 07:56:10;;;;;;;36.75;12.95;;;11.40;99.90;;;;;;5005442;28;20038;-78
2022/10/14 07:58:36;;;;;;;34.67;12.27;;;11.60;99.90;;;;;;4997669;28;20053;-78
2022/10/14 08:01:02;;;;;;;35.22;12.77;;;11.80;99.90;;;;;;5000419;28;20023;-78
2022/10/14 08:03:27;;;;;;;33.15;13.13;;;11.80;99.90;;;;;;4997703;28;20105;-77
2022/10/14 08:06:04;;;;;;;32.92;13.93;;;11.70;99.90;;;;;;5010984;28;20373;-77
2022/10/14 08:08:30;;;;;;;35.08;14.27;;;11.70;99.90;;;;;;4995525;28;20092;-77
2022/10/14 08:11:00;;;;;;;32.67;14.70;;;11.70;99.90;;;;;;4998674;28;20049;-77
2022/10/14 08:13:26;;;;;;;;;;;11.70;99.90;;;;;;4999583;28;20429;-77
2022/10/14 08:15:51;;;;;;;31.45;12.82;;;11.70;99.90;;;;;;5016804;28;19920;-77
2022/10/14 08:18:17;;;;;;;34.42;12.77;;;11.60;99.90;;;;;;5009499;28;20405;-77
2022/10/14 08:20:42;;;;;;;35.55;14.73;;;11.80;99.90;;;;;;5011130;28;20066;-77
2022/10/14 08:23:08;;;;;;;36.78;16.10;;;11.70;99.90;;;;;;5007927;28;20029;-78
2022/10/14 08:25:36;;;;;;;40.08;14.98;;;11.70;99.90;;;;;;5000444;28;20026;-78
2022/10/14 08:28:02;;;;;;;42.60;16.63;;;11.80;99.90;;;;;;4994718;28;20033;-78
2022/10/14 08:30:27;;;;;;;35.35;14.80;;;11.80;99.90;;;;;;5017787;28;20021;-79
2022/10/14 08:32:54;;;;;;;37.80;15.35;;;11.80;99.90;;;;;;5007048;28;20636;-79
2022/10/14 08:35:19;;;;;;;33.72;14.75;;;11.90;99.90;;;;;;5006569;28;20026;-79
2022/10/14 08:38:00;;;;;;;31.98;13.52;;;11.90;99.90;;;;;;5007960;28;20359;-79
2022/10/14 08:40:32;;;;;;;34.65;14.65;;;11.80;99.90;;;;;;5006921;28;20066;-77
2022/10/14 08:43:20;;;;;;;24.23;10.32;;;11.90;99.90;;;;;;5000242;28;20029;-77
2022/10/14 08:45:53;;;;;;;36.17;14.55;;;12.20;99.90;;;;;;4998202;28;20049;-77
2022/10/14 08:48:23;;;;;;;35.50;15.15;;;12.60;99.90;;;;;;5003968;28;20022;-77
2022/10/14 08:50:52;;;;;;;28.65;12.85;;;12.80;99.90;;;;;;5013256;28;20382;-77
2022/10/14 08:53:22;;;;;;;32.03;13.38;;;12.90;99.90;;;;;;5005478;28;20064;-77
2022/10/14 08:55:55;;;;;;;35.70;16.05;;;13.30;99.90;;;;;;5022026;28;20027;-77
2022/10/14 08:58:37;;;;;;;35.58;15.07;;;13.20;99.90;;;;;;5006340;28;20029;-77
2022/10/14 09:01:23;;;;;;;29.83;13.68;;;13.60;99.90;;;;;;5010316;28;20049;-77
2022/10/14 09:03:55;;;;;;;31.25;13.70;;;13.50;99.90;;;;;;5015753;28;20034;-78
2022/10/14 09:06:27;;;;;;;34.10;14.68;;;13.50;99.90;;;;;;5010658;28;20528;-77
2022/10/14 09:08:57;;;;;;;36.03;14.82;;;13.40;99.90;;;;;;5016033;28;20108;-77
2022/10/14 09:11:24;;;;;;;31.67;15.32;;;13.60;99.90;;;;;;5005160;28;20025;-78
2022/10/14 09:13:56;;;;;;;32.17;14.85;;;13.20;99.90;;;;;;5009325;28;20088;-78
2022/10/14 09:16:28;;;;;;;31.73;14.77;;;13.30;99.90;;;;;;5014591;28;20102;-77
2022/10/14 09:19:01;;;;;;;31.77;14.30;;;13.30;99.90;;;;;;5014378;28;20112;-77
2022/10/14 09:21:38;;;;;;;33.15;14.95;;;13.10;99.90;;;;;;5014501;28;20473;-77
2022/10/14 09:24:14;;;;;;;29.35;14.82;;;13.10;99.90;;;;;;5014592;28;20116;-77
2022/10/14 09:26:42;;;;;;;30.95;14.50;;;13.10;99.90;;;;;;5014727;28;20022;-78
2022/10/14 09:29:21;;;;;;;27.38;13.38;;;13.30;99.90;;;;;;5009373;28;20026;-78
2022/10/14 09:31:47;;;;;;;27.80;13.88;;;13.40;99.90;;;;;;4995836;28;20489;-78
2022/10/14 09:34:19;;;;;;;23.50;12.20;;;13.30;99.90;;;;;;4999770;28;20055;-78
2022/10/14 09:36:48;;;;;;;25.80;12.38;;;13.10;99.90;;;;;;5005380;28;20030;-77
2022/10/14 09:39:14;;;;;;;24.83;12.10;;;13.10;99.90;;;;;;5000932;28;20351;-78
2022/10/14 09:41:39;;;;;;;23.10;11.68;;;13.30;99.90;;;;;;5002356;28;20022;-78
2022/10/14 09:44:24;;;;;;;21.00;11.25;;;13.40;99.90;;;;;;4996130;28;20489;-78
2022/10/14 09:46:58;;;;;;;22.05;11.45;;;13.60;99.90;;;;;;5005631;28;20044;-77
2022/10/14 09:49:44;;;;;;;19.95;10.38;;;13.40;99.90;;;;;;5010594;28;20026;-77
2022/10/14 09:52:22;;;;;;;19.75;9.80;;;13.60;99.90;;;;;;5002605;28;20331;-77
2022/10/14 09:54:59;;;;;;;21.48;10.65;;;13.90;99.90;;;;;;4996494;28;20041;-77
2022/10/14 09:57:25;;;;;;;18.25;9.60;;;14.10;99.90;;;;;;4998839;28;20026;-77
2022/10/14 09:59:55;;;;;;;19.73;9.90;;;14.00;99.90;;;;;;4999302;28;20026;-77
2022/10/14 10:02:42;;;;;;;19.02;9.30;;;14.00;99.90;;;;;;5006153;28;20036;-77
2022/10/14 10:05:24;;;;;;;17.70;8.95;;;13.70;99.90;;;;;;5016347;28;20026;-77
2022/10/14 10:08:19;;;;;;;12.90;8.05;;;13.70;99.90;;;;;;5004547;28;20120;-77
2022/10/14 10:11:08;;;;;;;15.13;8.15;;;13.40;99.90;;;;;;4984624;28;20096;-78
2022/10/14 10:13:52;;;;;;;14.52;7.82;;;13.50;99.90;;;;;;5013004;28;20118;-77
2022/10/14 10:16:30;;;;;;;12.48;6.97;;;13.60;99.90;;;;;;5013841;28;20426;-77
2022/10/14 10:18:56;;;;;;;13.27;7.05;;;13.90;99.90;;;;;;5008812;28;20033;-77
2022/10/14 10:21:25;;;;;;;11.77;6.43;;;14.10;99.90;;;;;;5012248;28;20064;-77
2022/10/14 10:23:59;;;;;;;13.10;7.15;;;14.00;99.90;;;;;;4996781;28;20023;-77
2022/10/14 10:26:30;;;;;;;14.25;7.40;;;14.60;99.90;;;;;;5019904;28;20040;-77
2022/10/14 10:28:58;;;;;;;12.63;7.00;;;14.60;99.90;;;;;;5019394;28;20028;-77
2022/10/14 10:31:51;;;;;;;11.93;6.15;;;14.50;99.90;;;;;;5003037;28;20458;-77
2022/10/14 10:34:50;;;;;;;13.63;7.00;;;14.50;99.90;;;;;;5008948;28;20042;-79
2022/10/14 10:37:27;;;;;;;10.82;5.63;;;14.90;99.90;;;;;;5015187;28;20481;-79
2022/10/14 10:40:09;;;;;;;10.13;6.07;;;15.20;99.90;;;;;;5019350;28;20105;-79
2022/10/14 10:42:58;;;;;;;10.43;6.57;;;15.30;99.90;;;;;;5008013;28;20030;-81
2022/10/14 10:45:38;;;;;;;10.95;5.80;;;15.00;99.90;;;;;;5005295;28;20057;-79
2022/10/14 10:48:31;;;;;;;8.73;5.28;;;14.50;99.90;;;;;;5014210;28;20033;-79
2022/10/14 10:51:08;;;;;;;9.23;5.68;;;14.70;99.90;;;;;;5010443;28;20038;-79
2022/10/14 10:54:26;;;;;;;9.50;5.45;;;14.70;99.90;;;;;;5004318;28;20075;-79
2022/10/14 10:57:00;;;;;;;9.70;5.10;;;14.70;99.90;;;;;;4978659;28;20125;-79
2022/10/14 10:59:44;;;;;;;9.25;5.60;;;14.40;99.90;;;;;;4999671;28;20493;-79
2022/10/14 11:02:22;;;;;;;9.00;5.32;;;14.60;99.90;;;;;;5004904;28;20497;-79
2022/10/14 11:05:12;;;;;;;8.65;5.60;;;14.40;99.90;;;;;;5014591;28;20104;-78
2022/10/14 11:13:44;;;;;;;7.68;4.57;;;14.10;99.90;;;;;;5006396;28;20125;-78
2022/10/14 11:16:37;;;;;;;7.50;4.47;;;14.20;99.90;;;;;;5013675;28;20096;-77
2022/10/14 11:19:17;;;;;;;8.02;4.97;;;14.30;99.90;;;;;;5010287;28;20029;-77
2022/10/14 11:21:54;;;;;;;6.95;4.82;;;14.30;99.90;;;;;;5004667;28;20033;-78
2022/10/14 11:24:51;;;;;;;7.75;4.82;;;14.30;99.90;;;;;;4997444;28;20030;-77
2022/10/14 11:27:30;;;;;;;7.53;4.45;;;14.20;99.90;;;;;;5008548;28;20026;-77
2022/10/14 11:30:05;;;;;;;7.10;4.13;;;14.50;99.90;;;;;;5007339;28;20061;-78
2022/10/14 11:33:06;;;;;;;6.38;4.43;;;14.40;99.90;;;;;;4997259;28;20390;-78
2022/10/14 11:35:52;;;;;;;8.07;4.75;;;14.40;99.90;;;;;;4996497;28;20037;-77
2022/10/14 11:38:47;;;;;;;5.57;3.97;;;14.50;99.90;;;;;;5009070;28;20103;-78
2022/10/14 11:41:27;;;;;;;6.75;4.15;;;14.40;99.90;;;;;;5005674;28;20381;-78
2022/10/14 11:44:23;;;;;;;6.47;4.18;;;14.40;99.90;;;;;;4999850;28;20044;-78
2022/10/14 11:46:55;;;;;;;7.07;4.30;;;14.20;99.90;;;;;;5001538;28;20027;-78
2022/10/14 11:49:36;;;;;;;6.57;4.07;;;14.40;99.90;;;;;;5008440;28;20022;-77
2022/10/14 11:52:15;;;;;;;6.68;4.65;;;14.50;99.90;;;;;;5002345;28;20030;-77
2022/10/14 11:54:52;;;;;;;5.65;4.30;;;14.70;99.90;;;;;;5000537;28;20031;-78
2022/10/14 11:57:26;;;;;;;6.50;4.57;;;14.70;99.90;;;;;;5005581;28;20494;-78
2022/10/14 12:00:00;;;;;;;10.27;5.10;;;14.60;99.90;;;;;;5000699;28;20031;-77
2022/10/14 12:02:35;;;;;;;7.15;4.43;;;14.70;99.90;;;;;;5001292;28;20026;-79
2022/10/14 12:05:15;;;;;;;7.53;4.88;;;14.80;99.90;;;;;;5002604;28;20033;-78
2022/10/14 12:07:55;;;;;;;7.03;4.65;;;14.60;99.90;;;;;;5009271;28;20027;-78
2022/10/14 12:10:31;;;;;;;6.95;4.43;;;14.60;99.90;;;;;;5008156;28;20121;-78
2022/10/14 12:12:57;;;;;;;7.75;5.05;;;14.50;99.90;;;;;;5018856;28;20042;-77
2022/10/14 12:15:25;;;;;;;7.40;4.78;;;14.60;99.90;;;;;;5010584;28;20030;-77
2022/10/14 12:17:58;;;;;;;7.68;4.78;;;14.70;99.90;;;;;;4991644;28;20034;-78
2022/10/14 12:20:48;;;;;;;8.02;5.10;;;14.80;99.90;;;;;;5011458;28;20029;-79
2022/10/14 12:23:29;;;;;;;10.38;5.55;;;14.80;99.90;;;;;;5020870;28;20018;-79
2022/10/14 12:25:58;;;;;;;;;;;14.80;99.90;;;;;;5013235;28;20030;-79
2022/10/14 12:28:24;;;;;;;6.85;4.63;;;14.80;99.90;;;;;;5008698;28;20856;-79
2022/10/14 12:30:50;;;;;;;6.50;4.47;;;14.80;99.90;;;;;;5010606;28;20023;-79
2022/10/14 12:33:16;;;;;;;8.23;5.03;;;14.60;99.90;;;;;;5009581;28;20421;-79
2022/10/14 12:35:49;;;;;;;7.05;5.25;;;14.70;99.90;;;;;;5010769;28;20050;-79
2022/10/14 12:38:15;;;;;;;8.23;5.07;;;14.60;99.90;;;;;;5017274;28;20037;-76
2022/10/14 12:40:40;;;;;;;7.22;5.05;;;14.60;99.90;;;;;;5016878;28;20018;-78
2022/10/14 12:43:26;;;;;;;6.40;4.53;;;14.60;99.90;;;;;;5016547;28;20037;-78
2022/10/14 12:46:13;;;;;;;7.15;4.70;;;14.70;99.90;;;;;;5007316;28;20389;-78
2022/10/14 12:48:50;;;;;;;6.72;4.70;;;14.80;99.90;;;;;;5012620;28;20049;-76
2022/10/14 12:51:22;;;;;;;4.75;4.00;;;14.80;99.90;;;;;;4999563;28;20033;-77
2022/10/14 12:53:52;;;;;;;5.50;3.75;;;14.90;99.90;;;;;;4997765;28;20030;-77
2022/10/14 12:56:30;;;;;;;4.97;3.67;;;14.70;99.90;;;;;;5010320;28;20088;-76
2022/10/14 12:59:02;;;;;;;4.13;3.45;;;14.50;99.90;;;;;;5004333;28;20686;-76
2022/10/14 13:01:29;;;;;;;4.28;3.35;;;14.50;99.90;;;;;;5009715;28;20080;-76
2022/10/14 13:04:06;;;;;;;6.50;3.20;;;14.50;99.90;;;;;;5000467;28;20130;-76
2022/10/14 13:06:34;;;;;;;4.55;3.20;;;14.50;99.90;;;;;;5000331;28;20022;-76